createdAt,value
2018-02-17T00:02:14.645Z,99.90
2018-02-17T00:04:50.279Z,99.90
2018-02-17T00:07:24.227Z,99.90
2018-02-17T00:09:59.030Z,99.90
2018-02-17T00:12:33.337Z,99.90
2018-02-17T00:15:07.350Z,99.90
2018-02-17T00:17:42.694Z,99.90
2018-02-17T00:23:03.833Z,99.90
2018-02-17T00:25:38.242Z,99.90
2018-02-17T00:28:12.877Z,99.90
2018-02-17T00:30:47.805Z,99.90
2018-02-17T00:33:21.809Z,99.90
2018-02-17T00:35:55.539Z,99.90
2018-02-17T00:38:30.471Z,99.90
2018-02-17T00:41:04.498Z,99.90
2018-02-17T00:43:38.896Z,99.90
2018-02-17T00:46:13.516Z,99.90
2018-02-17T00:48:49.091Z,99.90
2018-02-17T00:51:22.865Z,99.90
2018-02-17T00:53:56.780Z,99.90
2018-02-17T00:56:30.797Z,99.90
2018-02-17T00:59:06.423Z,99.90
2018-02-17T01:01:43.067Z,99.90
2018-02-17T01:04:23.810Z,99.90
2018-02-17T01:07:02.258Z,99.90
2018-02-17T01:09:37.732Z,99.90
2018-02-17T01:12:12.255Z,99.90
2018-02-17T01:14:46.599Z,99.90
2018-02-17T01:17:20.788Z,99.90
2018-02-17T01:19:56.644Z,99.90
2018-02-17T01:22:31.684Z,99.90
2018-02-17T01:25:05.479Z,99.90
2018-02-17T01:27:39.207Z,99.90
2018-02-17T01:30:13.003Z,99.90
2018-02-17T01:32:47.628Z,99.90
2018-02-17T01:35:23.056Z,99.90
2018-02-17T01:37:57.777Z,99.90
2018-02-17T01:40:32.304Z,99.90
2018-02-17T01:43:06.213Z,99.90
2018-02-17T01:45:40.237Z,99.90
2018-02-17T01:48:15.033Z,99.90
2018-02-17T01:50:49.291Z,99.90
2018-02-17T01:53:23.211Z,99.90
2018-02-17T01:55:58.076Z,99.90
2018-02-17T01:58:31.724Z,99.90
2018-02-17T02:01:07.892Z,99.90
2018-02-17T02:03:42.500Z,99.90
2018-02-17T02:06:16.736Z,99.90
2018-02-17T02:08:52.149Z,99.90
2018-02-17T02:11:26.879Z,99.90
2018-02-17T02:14:01.416Z,99.90
2018-02-17T02:16:36.047Z,99.80
2018-02-17T02:19:10.645Z,99.60
2018-02-17T02:21:45.179Z,99.50
2018-02-17T02:24:19.795Z,99.60
2018-02-17T02:26:53.587Z,99.60
2018-02-17T02:29:28.648Z,99.70
2018-02-17T02:32:02.541Z,99.70
2018-02-17T02:34:36.354Z,99.60
2018-02-17T02:37:10.463Z,99.50
2018-02-17T02:39:45.192Z,99.30
2018-02-17T02:42:19.389Z,99.30
2018-02-17T02:44:54.845Z,99.70
2018-02-17T02:47:29.268Z,99.70
2018-02-17T02:50:03.172Z,99.60
2018-02-17T02:52:38.515Z,99.70
2018-02-17T02:55:12.947Z,99.70
2018-02-17T02:57:46.800Z,99.70
2018-02-17T03:00:21.365Z,99.70
2018-02-17T03:02:55.261Z,99.70
2018-02-17T03:05:29.789Z,99.50
2018-02-17T03:08:03.708Z,99.50
2018-02-17T03:10:37.912Z,99.40
2018-02-17T03:13:11.850Z,99.30
2018-02-17T03:15:46.238Z,99.40
2018-02-17T03:18:20.979Z,99.30
2018-02-17T03:20:55.827Z,99.50
2018-02-17T03:23:30.931Z,99.50
2018-02-17T03:26:07.601Z,99.10
2018-02-17T03:28:42.533Z,99.10
2018-02-17T03:31:16.746Z,99.10
2018-02-17T03:33:50.646Z,99.00
2018-02-17T03:36:24.255Z,98.80
2018-02-17T03:38:59.194Z,98.60
2018-02-17T03:41:32.799Z,98.60
2018-02-17T03:44:07.189Z,98.40
2018-02-17T03:46:44.290Z,98.40
2018-02-17T03:49:18.350Z,98.40
2018-02-17T03:51:53.351Z,98.40
2018-02-17T03:54:27.847Z,98.40
2018-02-17T03:57:02.573Z,98.10
2018-02-17T03:59:41.125Z,98.10
2018-02-17T04:02:15.826Z,97.90
2018-02-17T04:04:50.438Z,97.60
2018-02-17T04:07:24.562Z,97.60
2018-02-17T04:09:59.687Z,97.70
2018-02-17T04:12:34.505Z,97.60
2018-02-17T04:15:08.499Z,97.70
2018-02-17T04:17:42.323Z,97.60
2018-02-17T04:20:15.979Z,97.90
2018-02-17T04:22:50.448Z,97.90
2018-02-17T04:25:25.065Z,98.10
2018-02-17T04:27:59.895Z,98.00
2018-02-17T04:30:35.031Z,97.70
2018-02-17T04:33:09.651Z,97.70
2018-02-17T04:35:43.875Z,97.70
2018-02-17T04:38:17.791Z,97.40
2018-02-17T04:41:06.631Z,97.40
2018-02-17T04:43:46.167Z,97.50
2018-02-17T04:46:24.904Z,97.10
2018-02-17T04:49:04.342Z,97.00
2018-02-17T05:05:30.565Z,96.50
2018-02-17T05:08:19.587Z,96.50
2018-02-17T05:10:54.358Z,96.40
2018-02-17T05:13:28.324Z,96.20
2018-02-17T05:16:19.861Z,96.20
2018-02-17T05:19:07.581Z,95.70
2018-02-17T05:21:51.233Z,95.60
2018-02-17T05:24:31.289Z,95.60
2018-02-17T05:27:10.400Z,95.60
2018-02-17T05:29:59.058Z,95.70
2018-02-17T05:32:38.493Z,95.60
2018-02-17T05:35:19.072Z,95.80
2018-02-17T05:37:53.050Z,95.80
2018-02-17T05:40:28.908Z,95.60
2018-02-17T05:43:03.735Z,95.50
2018-02-17T05:45:39.902Z,95.50
2018-02-17T05:48:13.794Z,95.40
2018-02-17T05:50:47.612Z,95.40
2018-02-17T05:53:21.224Z,95.00
2018-02-17T05:55:56.127Z,94.50
2018-02-17T05:58:30.767Z,94.70
2018-02-17T06:01:04.886Z,94.70
2018-02-17T06:03:38.801Z,94.90
2018-02-17T06:06:13.196Z,94.90
2018-02-17T06:08:47.614Z,94.70
2018-02-17T06:11:22.163Z,94.60
2018-02-17T06:13:56.288Z,94.70
2018-02-17T06:16:29.972Z,94.50
2018-02-17T06:19:04.387Z,94.80
2018-02-17T06:21:38.694Z,94.50
2018-02-17T06:24:12.721Z,94.60
2018-02-17T06:26:46.803Z,95.00
2018-02-17T06:29:20.496Z,94.80
2018-02-17T06:31:55.247Z,94.60
2018-02-17T06:34:30.272Z,94.60
2018-02-17T06:37:04.890Z,94.20
2018-02-17T06:39:39.614Z,94.20
2018-02-17T06:42:13.323Z,94.20
2018-02-17T06:44:47.535Z,93.90
2018-02-17T06:47:21.434Z,94.00
2018-02-17T06:49:56.247Z,94.10
2018-02-17T06:52:30.174Z,94.10
2018-02-17T06:55:04.697Z,93.90
2018-02-17T06:57:38.711Z,93.70
2018-02-17T07:00:12.511Z,93.60
2018-02-17T07:02:47.239Z,93.40
2018-02-17T07:05:20.925Z,93.40
2018-02-17T07:07:56.554Z,93.30
2018-02-17T07:10:30.491Z,93.30
2018-02-17T07:13:05.628Z,92.50
2018-02-17T07:15:39.535Z,92.60
2018-02-17T07:18:14.051Z,92.80
2018-02-17T07:20:48.278Z,92.80
2018-02-17T07:23:22.489Z,92.70
2018-02-17T07:25:57.133Z,93.30
2018-02-17T07:28:31.731Z,93.10
2018-02-17T07:31:05.695Z,93.10
2018-02-17T07:33:39.547Z,92.90
2018-02-17T07:36:14.369Z,92.30
2018-02-17T07:38:48.399Z,92.30
2018-02-17T07:41:22.207Z,92.30
2018-02-17T07:43:56.612Z,92.40
2018-02-17T07:46:31.133Z,92.40
2018-02-17T07:49:06.161Z,91.90
2018-02-17T07:51:40.010Z,91.90
2018-02-17T07:54:15.020Z,91.80
2018-02-17T07:56:49.324Z,91.80
2018-02-17T07:59:23.547Z,91.80
2018-02-17T08:02:03.984Z,91.20
2018-02-17T08:04:45.269Z,90.60
2018-02-17T08:07:19.692Z,90.90
2018-02-17T08:09:54.527Z,90.50
2018-02-17T08:12:29.044Z,90.70
2018-02-17T08:15:02.841Z,90.70
2018-02-17T08:17:37.778Z,91.20
2018-02-17T08:20:11.601Z,91.20
2018-02-17T08:22:46.208Z,91.20
2018-02-17T08:25:20.120Z,91.20
2018-02-17T08:27:54.826Z,91.30
2018-02-17T08:30:29.463Z,90.70
2018-02-17T08:33:04.120Z,90.70
2018-02-17T08:35:38.005Z,90.70
2018-02-17T08:38:11.710Z,90.10
2018-02-17T08:40:46.731Z,90.60
2018-02-17T08:43:20.643Z,90.60
2018-02-17T08:45:55.153Z,90.20
2018-02-17T08:48:28.858Z,90.40
2018-02-17T08:51:03.308Z,90.90
2018-02-17T08:53:38.404Z,90.90
2018-02-17T08:56:12.964Z,90.30
2018-02-17T08:58:47.152Z,90.30
2018-02-17T09:01:21.569Z,90.40
2018-02-17T09:03:55.893Z,90.40
2018-02-17T09:06:29.606Z,90.40
2018-02-17T09:09:04.408Z,90.00
2018-02-17T09:11:38.244Z,90.00
2018-02-17T09:14:12.133Z,89.50
2018-02-17T09:16:46.343Z,89.30
2018-02-17T09:19:20.863Z,87.20
2018-02-17T09:21:56.100Z,88.40
2018-02-17T09:24:29.906Z,88.40
2018-02-17T09:27:03.918Z,88.80
2018-02-17T09:29:37.833Z,87.60
2018-02-17T09:32:12.572Z,88.90
2018-02-17T09:34:47.192Z,88.60
2018-02-17T09:37:21.774Z,88.50
2018-02-17T09:39:56.328Z,88.50
2018-02-17T09:42:30.848Z,87.30
2018-02-17T09:45:04.753Z,87.20
2018-02-17T09:47:38.837Z,86.70
2018-02-17T09:50:13.516Z,86.30
2018-02-17T09:52:47.702Z,86.20
2018-02-17T09:55:22.331Z,85.80
2018-02-17T09:57:57.784Z,85.50
2018-02-17T10:00:31.971Z,85.50
2018-02-17T10:03:07.536Z,86.50
2018-02-17T10:05:42.328Z,87.10
2018-02-17T10:08:16.594Z,87.10
2018-02-17T10:10:50.280Z,86.20
2018-02-17T10:13:25.015Z,84.90
2018-02-17T10:15:58.908Z,85.60
2018-02-17T10:18:33.019Z,84.80
2018-02-17T10:21:07.986Z,82.00
2018-02-17T10:23:42.571Z,81.40
2018-02-17T10:26:17.111Z,83.50
2018-02-17T10:28:50.816Z,83.30
2018-02-17T10:31:25.513Z,82.50
2018-02-17T10:33:59.332Z,82.50
2018-02-17T10:36:33.128Z,83.50
2018-02-17T10:39:09.085Z,82.30
2018-02-17T10:41:44.318Z,83.30
2018-02-17T10:44:19.563Z,82.70
2018-02-17T10:46:53.395Z,82.70
2018-02-17T10:49:27.780Z,83.20
2018-02-17T10:52:01.499Z,82.90
2018-02-17T10:54:36.837Z,85.10
2018-02-17T10:57:11.350Z,84.90
2018-02-17T10:59:48.439Z,84.80
2018-02-17T11:02:29.815Z,85.90
2018-02-17T11:05:05.248Z,86.30
2018-02-17T11:07:39.055Z,86.30
2018-02-17T11:10:15.119Z,87.50
2018-02-17T11:12:50.779Z,88.70
2018-02-17T11:15:25.900Z,89.20
2018-02-17T11:17:59.912Z,89.20
2018-02-17T11:20:35.475Z,90.30
2018-02-17T11:23:10.104Z,90.80
2018-02-17T11:25:43.899Z,90.80
2018-02-17T11:28:18.638Z,91.80
2018-02-17T11:30:52.858Z,91.90
2018-02-17T11:33:28.162Z,92.70
2018-02-17T11:36:02.071Z,92.80
2018-02-17T11:38:36.396Z,92.90
2018-02-17T11:41:10.128Z,93.30
2018-02-17T11:43:44.515Z,93.80
2018-02-17T11:46:19.443Z,94.00
2018-02-17T11:48:53.240Z,94.10
2018-02-17T11:51:27.997Z,94.50
2018-02-17T11:54:02.619Z,94.60
2018-02-17T11:56:37.325Z,94.70
2018-02-17T11:59:13.173Z,95.40
2018-02-17T12:01:47.890Z,95.60
2018-02-17T12:04:22.340Z,95.50
2018-02-17T12:06:56.850Z,95.50
2018-02-17T12:09:30.851Z,95.20
2018-02-17T12:12:06.926Z,94.90
2018-02-17T12:14:40.820Z,94.90
2018-02-17T12:17:16.360Z,95.10
2018-02-17T12:19:51.322Z,95.10
2018-02-17T12:22:25.815Z,95.10
2018-02-17T12:24:59.708Z,94.80
2018-02-17T12:27:34.243Z,95.30
2018-02-17T12:30:09.070Z,95.70
2018-02-17T12:32:42.954Z,95.60
2018-02-17T12:35:17.615Z,95.30
2018-02-17T12:37:52.125Z,95.50
2018-02-17T12:40:26.753Z,95.40
2018-02-17T12:43:00.472Z,95.40
2018-02-17T12:45:35.545Z,95.60
2018-02-17T12:48:10.127Z,95.50
2018-02-17T12:50:44.112Z,95.50
2018-02-17T12:53:18.743Z,95.80
2018-02-17T12:55:52.540Z,95.80
2018-02-17T12:58:27.583Z,96.10
2018-02-17T13:01:01.484Z,96.10
2018-02-17T13:03:36.211Z,95.80
2018-02-17T13:06:10.747Z,95.90
2018-02-17T13:08:46.410Z,95.90
2018-02-17T13:11:20.967Z,96.00
2018-02-17T13:13:56.164Z,96.00
2018-02-17T13:16:30.071Z,95.80
2018-02-17T13:19:03.946Z,96.10
2018-02-17T13:21:38.898Z,96.10
2018-02-17T13:24:14.933Z,96.00
2018-02-17T13:26:49.575Z,95.90
2018-02-17T13:29:24.182Z,96.00
2018-02-17T13:31:58.711Z,96.10
2018-02-17T13:34:33.220Z,96.20
2018-02-17T13:37:07.953Z,96.40
2018-02-17T13:39:42.396Z,96.40
2018-02-17T13:42:16.205Z,96.40
2018-02-17T13:44:50.087Z,96.20
2018-02-17T13:47:25.139Z,96.00
2018-02-17T13:50:00.368Z,95.70
2018-02-17T13:52:34.180Z,95.70
2018-02-17T13:55:08.271Z,95.90
2018-02-17T13:57:42.816Z,96.30
2018-02-17T14:00:16.916Z,96.30
2018-02-17T14:02:51.112Z,96.30
2018-02-17T14:05:26.492Z,96.40
2018-02-17T14:08:00.180Z,96.60
2018-02-17T14:10:34.056Z,96.60
2018-02-17T14:13:08.684Z,96.90
2018-02-17T14:15:43.965Z,97.00
2018-02-17T14:18:29.024Z,97.00
2018-02-17T14:21:02.834Z,97.00
2018-02-17T14:23:37.327Z,97.20
2018-02-17T14:26:11.743Z,97.90
2018-02-17T14:28:46.892Z,97.90
2018-02-17T14:31:20.798Z,97.90
2018-02-17T14:33:54.595Z,98.50
2018-02-17T14:36:29.223Z,98.10
2018-02-17T14:39:03.244Z,98.00
2018-02-17T14:41:37.148Z,97.90
2018-02-17T14:44:11.594Z,97.90
2018-02-17T14:46:46.069Z,97.90
2018-02-17T14:49:19.884Z,98.10
2018-02-17T14:51:55.547Z,98.10
2018-02-17T14:54:29.452Z,98.10
2018-02-17T14:57:04.158Z,96.80
2018-02-17T14:59:38.900Z,97.20
2018-02-17T15:02:12.694Z,97.20
2018-02-17T15:04:46.815Z,96.90
2018-02-17T15:07:20.511Z,96.20
2018-02-17T15:09:54.434Z,96.30
2018-02-17T15:12:28.552Z,96.30
2018-02-17T15:15:02.323Z,96.40
2018-02-17T15:17:36.444Z,96.10
2018-02-17T15:20:11.076Z,96.10
2018-02-17T15:22:46.223Z,96.40
2018-02-17T15:25:20.620Z,97.00
2018-02-17T15:27:55.775Z,97.30
2018-02-17T15:30:29.570Z,97.30
2018-02-17T15:33:03.543Z,97.80
2018-02-17T15:35:38.407Z,97.30
2018-02-17T15:38:12.316Z,97.30
2018-02-17T15:40:47.131Z,97.60
2018-02-17T15:43:21.881Z,97.80
2018-02-17T15:45:56.614Z,97.80
2018-02-17T15:48:31.413Z,98.00
2018-02-17T15:51:07.564Z,98.00
2018-02-17T15:53:43.742Z,98.00
2018-02-17T15:56:18.562Z,98.00
2018-02-17T15:58:52.585Z,97.90
2018-02-17T16:01:29.161Z,97.60
2018-02-17T16:04:03.054Z,97.60
2018-02-17T16:06:37.108Z,97.40
2018-02-17T16:09:11.691Z,97.80
2018-02-17T16:11:46.533Z,98.30
2018-02-17T16:14:20.424Z,98.30
2018-02-17T16:16:55.265Z,98.40
2018-02-17T16:19:28.879Z,98.40
2018-02-17T16:22:03.771Z,98.40
2018-02-17T16:24:38.427Z,98.50
2018-02-17T16:27:13.431Z,98.50
2018-02-17T16:29:48.184Z,98.50
2018-02-17T16:32:21.942Z,98.50
2018-02-17T16:34:56.899Z,98.50
2018-02-17T16:37:30.602Z,98.50
2018-02-17T16:40:04.507Z,98.50
2018-02-17T16:42:38.532Z,98.70
2018-02-17T16:45:13.344Z,98.60
2018-02-17T16:47:47.967Z,98.70
2018-02-17T16:50:21.584Z,98.70
2018-02-17T16:52:55.788Z,98.80
2018-02-17T16:55:29.895Z,98.90
2018-02-17T16:58:04.222Z,99.10
2018-02-17T17:00:38.551Z,99.70
2018-02-17T17:03:12.647Z,99.40
2018-02-17T17:05:47.368Z,99.00
2018-02-17T17:08:22.099Z,99.10
2018-02-17T17:10:57.093Z,99.10
2018-02-17T17:13:31.922Z,99.20
2018-02-17T17:16:06.692Z,99.20
2018-02-17T17:18:40.697Z,99.20
2018-02-17T17:21:15.205Z,99.40
2018-02-17T17:23:49.719Z,99.40
2018-02-17T17:26:23.993Z,99.40
2018-02-17T17:28:57.649Z,99.50
2018-02-17T17:31:31.871Z,99.50
2018-02-17T17:34:07.940Z,99.60
2018-02-17T17:36:46.695Z,99.60
2018-02-17T17:39:20.740Z,99.80
2018-02-17T17:41:56.296Z,99.80
2018-02-17T17:44:30.196Z,99.90
2018-02-17T17:47:05.657Z,99.90
2018-02-17T17:49:40.167Z,99.90
2018-02-17T17:52:14.278Z,99.90
2018-02-17T17:54:49.040Z,99.90
2018-02-17T17:57:22.899Z,99.90
2018-02-17T17:59:56.716Z,99.90
2018-02-17T18:02:31.127Z,99.80
2018-02-17T18:05:05.349Z,99.80
2018-02-17T18:07:39.176Z,99.70
2018-02-17T18:10:13.168Z,99.80
2018-02-17T18:12:47.577Z,99.80
2018-02-17T18:15:22.536Z,99.90
2018-02-17T18:17:57.128Z,99.90
2018-02-17T18:20:31.765Z,99.90
2018-02-17T18:23:06.683Z,99.90
2018-02-17T18:25:40.517Z,99.90
2018-02-17T18:28:15.245Z,99.90
2018-02-17T18:30:49.336Z,99.90
2018-02-17T18:33:23.372Z,99.80
2018-02-17T18:35:57.661Z,99.80
2018-02-17T18:38:32.485Z,99.90
2018-02-17T18:41:06.502Z,99.90
2018-02-17T18:43:40.536Z,99.80
2018-02-17T18:46:16.703Z,99.80
2018-02-17T18:48:51.920Z,99.60
2018-02-17T18:51:27.273Z,99.60
2018-02-17T18:54:01.148Z,99.70
2018-02-17T18:56:34.770Z,99.80
2018-02-17T18:59:09.507Z,99.70
2018-02-17T19:01:45.806Z,99.60
2018-02-17T19:04:21.104Z,99.60
2018-02-17T19:06:55.636Z,99.50
2018-02-17T19:09:30.367Z,99.50
2018-02-17T19:12:05.994Z,99.50
2018-02-17T19:14:41.872Z,99.60
2018-02-17T19:17:18.257Z,99.00
2018-02-17T19:19:52.610Z,98.80
2018-02-17T19:22:29.325Z,98.70
2018-02-17T19:25:05.335Z,99.30
2018-02-17T19:27:41.081Z,99.70
2018-02-17T19:30:18.678Z,99.60
2018-02-17T19:32:52.481Z,99.70
2018-02-17T19:35:27.743Z,99.80
2018-02-17T19:38:01.905Z,99.80
2018-02-17T19:40:38.732Z,99.90
2018-02-17T19:43:17.431Z,99.30
2018-02-17T19:45:51.347Z,99.30
2018-02-17T19:48:26.895Z,99.00
2018-02-17T19:51:01.448Z,99.10
2018-02-17T19:53:36.761Z,98.70
2018-02-17T19:56:10.646Z,98.70
2018-02-17T19:58:45.902Z,98.30
2018-02-17T20:01:19.895Z,98.30
2018-02-17T20:03:55.068Z,99.10
2018-02-17T20:06:29.160Z,98.80
2018-02-17T20:09:04.901Z,98.80
2018-02-17T20:11:40.035Z,99.30
2018-02-17T20:14:14.567Z,99.30
2018-02-17T20:16:49.687Z,99.20
2018-02-17T20:19:23.500Z,99.20
2018-02-17T20:21:58.043Z,99.60
2018-02-17T20:24:31.748Z,99.50
2018-02-17T20:27:06.567Z,99.20
2018-02-17T20:29:41.067Z,99.10
2018-02-17T20:32:15.304Z,98.90
2018-02-17T20:34:49.202Z,98.70
2018-02-17T20:37:23.410Z,98.60
2018-02-17T20:39:59.371Z,98.70
2018-02-17T20:42:33.610Z,98.60
2018-02-17T20:45:09.267Z,99.00
2018-02-17T20:47:44.941Z,99.20
2018-02-17T20:50:20.425Z,99.20
2018-02-17T20:52:55.136Z,99.20
2018-02-17T20:55:29.712Z,99.20
2018-02-17T20:58:05.185Z,98.40
2018-02-17T21:00:40.573Z,98.40
2018-02-17T21:03:14.479Z,98.40
2018-02-17T21:05:50.336Z,98.40
2018-02-17T21:08:26.299Z,98.20
2018-02-17T21:11:01.015Z,98.60
2018-02-17T21:13:35.941Z,99.00
2018-02-17T21:16:11.180Z,99.20
2018-02-17T21:18:46.044Z,99.20
2018-02-17T21:21:21.644Z,99.00
2018-02-17T21:23:58.943Z,98.90
2018-02-17T21:26:32.739Z,98.70
2018-02-17T21:29:09.627Z,98.40
2018-02-17T21:31:47.577Z,97.70
2018-02-17T21:34:22.238Z,97.60
2018-02-17T21:36:58.015Z,97.70
2018-02-17T21:39:33.628Z,97.50
2018-02-17T21:42:07.956Z,97.60
2018-02-17T21:44:43.515Z,97.70
2018-02-17T21:47:17.717Z,98.00
2018-02-17T21:49:52.136Z,97.80
2018-02-17T21:52:27.585Z,97.90
2018-02-17T21:55:01.288Z,97.90
2018-02-17T21:57:35.384Z,97.70
2018-02-17T22:00:10.911Z,97.80
2018-02-17T22:02:46.682Z,98.30
2018-02-17T22:05:22.319Z,98.40
2018-02-17T22:07:57.180Z,98.40
2018-02-17T22:10:31.271Z,98.40
2018-02-17T22:13:05.880Z,98.80
2018-02-17T22:15:40.308Z,98.90
2018-02-17T22:18:14.188Z,98.80
2018-02-17T22:20:50.400Z,98.90
2018-02-17T22:23:26.049Z,99.20
2018-02-17T22:26:00.038Z,99.30
2018-02-17T22:28:33.961Z,99.50
2018-02-17T22:31:08.264Z,99.60
2018-02-17T22:33:42.266Z,99.70
2018-02-17T22:36:17.203Z,99.90
2018-02-17T22:38:50.993Z,99.90
2018-02-17T22:41:25.636Z,99.90
2018-02-17T22:43:59.655Z,99.90
2018-02-17T22:46:34.391Z,99.90
2018-02-17T22:49:08.191Z,99.90
2018-02-17T22:51:42.064Z,99.90
2018-02-17T22:54:16.800Z,99.90
2018-02-17T22:56:51.534Z,99.90
2018-02-17T22:59:26.468Z,99.90
2018-02-17T23:02:01.281Z,99.90
2018-02-17T23:04:35.804Z,99.90
2018-02-17T23:07:10.436Z,99.90
2018-02-17T23:09:45.689Z,99.90
2018-02-17T23:12:20.507Z,99.90
2018-02-17T23:14:55.571Z,99.90
2018-02-17T23:17:30.363Z,99.90
2018-02-17T23:20:04.401Z,99.90
2018-02-17T23:22:38.376Z,99.90
2018-02-17T23:25:13.099Z,99.90
2018-02-17T23:27:48.059Z,99.90
2018-02-17T23:30:22.759Z,99.90
2018-02-17T23:32:57.083Z,99.90
2018-02-17T23:35:31.397Z,99.90
2018-02-17T23:38:06.439Z,99.90
2018-02-17T23:40:41.261Z,99.90
2018-02-17T23:43:15.681Z,99.90
2018-02-17T23:45:49.688Z,99.90
2018-02-17T23:48:24.232Z,99.90
2018-02-17T23:50:59.241Z,99.90
2018-02-17T23:53:33.051Z,99.90
2018-02-17T23:56:08.086Z,99.90
2018-02-17T23:58:42.101Z,99.90
